Time;durP1;ratioP1;P1;durP2;ratioP2;P2;SDS_P1;SDS_P2;PMS_P1;PMS_P2;Temp;Humidity;BMP_temperature;BMP_pressure;BME280_temperature;BME280_humidity;BME280_pressure;Samples;Min_cycle;Max_cycle;Signal;HPM_P1;HPM_P2
2024/02/03 00:00:30;;;;;;;0.77;0.20;;;;;;;;;;5088046;28;20458;-77
2024/02/03 00:02:56;;;;;;;0.20;0.20;;;;;;;;;;5091249;28;20020;-79
2024/02/03 00:05:22;;;;;;;0.20;0.20;;;;;;;;;;5096167;28;20039;-77
2024/02/03 00:07:48;;;;;;;0.65;0.20;;;;;;;;;;5098466;28;20040;-75
2024/02/03 00:10:14;;;;;;;0.20;0.20;;;;;;;;;;5097706;28;20032;-78
2024/02/03 00:12:40;;;;;;;0.40;0.13;;;;;;;;;;5097878;28;20032;-77
2024/02/03 00:15:07;;;;;;;0.70;0.30;;;;;;;;;;5094054;27;20028;-77
2024/02/03 00:17:33;;;;;;;1.15;0.20;;;;;;;;;;5078736;28;20033;-77
2024/02/03 00:19:59;;;;;;;0.10;0.10;;;;;;;;;;5084299;28;20031;-77
2024/02/03 00:22:28;;;;;;;0.98;0.20;;;;;;;;;;5087568;28;20031;-80
2024/02/03 00:24:55;;;;;;;0.47;0.10;;;;;;;;;;5082766;28;20020;-78
2024/02/03 00:27:21;;;;;;;0.20;0.20;;;;;;;;;;5081051;28;20028;-79
2024/02/03 00:29:47;;;;;;;0.20;0.20;;;;;;;;;;5080050;28;20025;-78
2024/02/03 00:32:13;;;;;;;0.40;0.15;;;;;;;;;;5077870;28;20032;-76
2024/02/03 00:34:41;;;;;;;0.30;0.20;;;;;;;;;;5081115;28;20510;-78
2024/02/03 00:37:07;;;;;;;0.15;0.10;;;;;;;;;;5079950;28;20436;-78
2024/02/03 00:39:33;;;;;;;0.30;0.30;;;;;;;;;;5080870;28;20543;-78
2024/02/03 00:41:59;;;;;;;0.20;0.20;;;;;;;;;;5079299;28;20449;-78
2024/02/03 00:44:26;;;;;;;0.32;0.10;;;;;;;;;;5082735;28;20036;-79
2024/02/03 00:46:52;;;;;;;1.17;0.88;;;;;;;;;;5075031;28;20032;-78
2024/02/03 00:49:18;;;;;;;0.32;0.10;;;;;;;;;;5082938;28;20051;-78
2024/02/03 00:51:44;;;;;;;0.88;0.10;;;;;;;;;;5083272;28;20151;-77
2024/02/03 00:54:10;;;;;;;0.30;0.20;;;;;;;;;;5075667;28;20043;-77
2024/02/03 00:56:36;;;;;;;0.22;0.20;;;;;;;;;;5076054;28;20056;-77
2024/02/03 00:59:02;;;;;;;0.10;0.10;;;;;;;;;;5086248;28;20035;-78
2024/02/03 01:01:29;;;;;;;0.10;0.10;;;;;;;;;;5082418;28;20252;-78
2024/02/03 01:03:55;;;;;;;0.20;0.10;;;;;;;;;;5079126;28;20024;-78
2024/02/03 01:06:21;;;;;;;0.30;0.30;;;;;;;;;;5069851;28;20024;-78
2024/02/03 01:08:47;;;;;;;0.22;0.20;;;;;;;;;;5063485;28;20021;-78
2024/02/03 01:11:14;;;;;;;0.50;0.20;;;;;;;;;;5077262;28;20395;-78
2024/02/03 01:13:40;;;;;;;0.45;0.35;;;;;;;;;;5082366;28;20128;-77
2024/02/03 01:16:06;;;;;;;0.52;0.20;;;;;;;;;;5085403;28;20483;-76
2024/02/03 01:18:32;;;;;;;0.63;0.30;;;;;;;;;;5075355;28;20395;-77
2024/02/03 01:20:58;;;;;;;0.30;0.20;;;;;;;;;;5080487;28;20020;-78
2024/02/03 01:23:25;;;;;;;1.25;0.30;;;;;;;;;;5067856;28;20040;-78
2024/02/03 01:25:51;;;;;;;0.47;0.20;;;;;;;;;;5072693;28;20029;-78
2024/02/03 01:28:17;;;;;;;0.10;0.10;;;;;;;;;;5080250;28;20020;-77
2024/02/03 01:30:43;;;;;;;0.40;0.40;;;;;;;;;;5088067;28;20123;-78
2024/02/03 01:33:09;;;;;;;0.45;0.20;;;;;;;;;;5081387;28;20283;-77
2024/02/03 01:35:35;;;;;;;0.20;0.20;;;;;;;;;;5090664;27;20098;-78
2024/02/03 01:38:02;;;;;;;2.63;0.20;;;;;;;;;;5084240;28;20048;-77
2024/02/03 01:40:28;;;;;;;0.20;0.20;;;;;;;;;;5091163;28;20071;-76
2024/02/03 01:43:01;;;;;;;0.28;0.28;;;;;;;;;;5092801;28;20028;-76
2024/02/03 01:45:27;;;;;;;0.28;0.28;;;;;;;;;;5082847;28;20037;-78
2024/02/03 01:47:54;;;;;;;0.90;0.32;;;;;;;;;;5075914;28;20032;-78
2024/02/03 01:50:20;;;;;;;0.55;0.20;;;;;;;;;;5075381;28;20032;-77
2024/02/03 01:52:46;;;;;;;0.55;0.20;;;;;;;;;;5069055;28;20035;-78
2024/02/03 01:55:13;;;;;;;0.70;0.30;;;;;;;;;;5083613;28;20463;-78
2024/02/03 01:57:39;;;;;;;0.20;0.10;;;;;;;;;;5080313;28;20476;-77
2024/02/03 02:00:08;;;;;;;0.40;0.17;;;;;;;;;;5082422;28;20047;-78
2024/02/03 02:02:34;;;;;;;0.20;0.20;;;;;;;;;;5076075;28;20020;-78
2024/02/03 02:05:00;;;;;;;0.10;0.10;;;;;;;;;;5071882;28;20074;-77
2024/02/03 02:07:26;;;;;;;0.10;0.08;;;;;;;;;;5081102;28;20035;-77
2024/02/03 02:09:53;;;;;;;0.28;0.10;;;;;;;;;;5074840;28;20029;-78
2024/02/03 02:12:19;;;;;;;0.17;0.17;;;;;;;;;;5076796;28;20017;-77
2024/02/03 02:14:45;;;;;;;0.10;0.10;;;;;;;;;;5069767;28;20024;-78
2024/02/03 02:17:11;;;;;;;0.32;0.10;;;;;;;;;;5076098;28;20025;-78
2024/02/03 02:19:38;;;;;;;0.17;0.10;;;;;;;;;;5080129;28;20368;-78
2024/02/03 02:22:04;;;;;;;0.32;0.10;;;;;;;;;;5076404;28;20056;-78
2024/02/03 02:24:30;;;;;;;0.28;0.13;;;;;;;;;;5077571;28;20103;-77
2024/02/03 02:26:56;;;;;;;0.20;0.20;;;;;;;;;;5076052;28;20025;-77
2024/02/03 02:29:22;;;;;;;0.10;0.10;;;;;;;;;;5078004;28;20047;-78
2024/02/03 02:31:48;;;;;;;0.20;0.20;;;;;;;;;;5075488;28;20036;-77
2024/02/03 02:34:14;;;;;;;0.10;0.10;;;;;;;;;;5076698;28;20479;-79
2024/02/03 02:36:41;;;;;;;0.90;0.20;;;;;;;;;;5086539;28;20043;-78
2024/02/03 02:39:07;;;;;;;0.20;0.10;;;;;;;;;;5075619;28;20028;-78
2024/02/03 02:41:34;;;;;;;0.28;0.22;;;;;;;;;;5075862;28;20096;-77
2024/02/03 02:44:00;;;;;;;0.13;0.10;;;;;;;;;;5079600;28;20534;-78
2024/02/03 02:46:27;;;;;;;0.10;0.10;;;;;;;;;;5071005;28;20040;-78
2024/02/03 02:48:53;;;;;;;0.73;0.20;;;;;;;;;;5077447;28;20714;-77
2024/02/03 02:51:19;;;;;;;0.00;0.00;;;;;;;;;;5083561;28;20027;-78
2024/02/03 02:53:45;;;;;;;0.10;0.10;;;;;;;;;;5088652;28;20028;-77
2024/02/03 02:56:13;;;;;;;0.17;0.10;;;;;;;;;;5085830;28;20021;-77
2024/02/03 02:58:39;;;;;;;3.47;0.20;;;;;;;;;;5084274;28;20032;-77
2024/02/03 03:01:05;;;;;;;0.20;0.20;;;;;;;;;;5094325;28;20095;-78
2024/02/03 03:03:31;;;;;;;0.60;0.20;;;;;;;;;;5094992;28;20051;-77
2024/02/03 03:05:58;;;;;;;0.20;0.10;;;;;;;;;;5095721;27;20023;-77
2024/02/03 03:08:24;;;;;;;1.55;0.20;;;;;;;;;;5081053;28;20484;-78
2024/02/03 03:10:50;;;;;;;0.17;0.17;;;;;;;;;;5072273;28;20031;-77
2024/02/03 03:13:16;;;;;;;0.10;0.10;;;;;;;;;;5089456;28;20021;-78
2024/02/03 03:15:43;;;;;;;0.30;0.20;;;;;;;;;;5074900;28;20013;-78
2024/02/03 03:18:09;;;;;;;0.20;0.20;;;;;;;;;;5073367;28;20311;-78
2024/02/03 03:20:35;;;;;;;0.45;0.28;;;;;;;;;;5079568;28;20116;-77
2024/02/03 03:23:01;;;;;;;0.20;0.20;;;;;;;;;;5080522;28;20086;-78
2024/02/03 03:25:28;;;;;;;0.20;0.10;;;;;;;;;;5082870;28;20044;-78
2024/02/03 03:27:54;;;;;;;0.40;0.20;;;;;;;;;;5075301;28;20020;-78
2024/02/03 03:30:20;;;;;;;0.10;0.10;;;;;;;;;;5073234;28;20494;-78
2024/02/03 03:32:46;;;;;;;0.15;0.15;;;;;;;;;;5073226;28;20040;-79
2024/02/03 03:35:13;;;;;;;0.10;0.10;;;;;;;;;;5072240;28;20476;-77
2024/02/03 03:37:40;;;;;;;0.10;0.10;;;;;;;;;;5087521;28;20090;-77
2024/02/03 03:40:06;;;;;;;0.20;0.10;;;;;;;;;;5093483;28;20036;-77
2024/02/03 03:42:32;;;;;;;0.25;0.20;;;;;;;;;;5083710;28;20024;-78
2024/02/03 03:44:59;;;;;;;1.98;0.10;;;;;;;;;;5083244;28;20018;-78
2024/02/03 03:47:27;;;;;;;0.20;0.10;;;;;;;;;;5077786;28;20032;-78
2024/02/03 03:49:53;;;;;;;0.10;0.10;;;;;;;;;;5087263;28;20097;-78
2024/02/03 03:52:19;;;;;;;0.10;0.10;;;;;;;;;;5084183;27;20040;-78
2024/02/03 03:54:45;;;;;;;0.20;0.20;;;;;;;;;;5083759;28;20032;-77
2024/02/03 03:57:11;;;;;;;0.20;0.10;;;;;;;;;;5089015;28;20041;-76
2024/02/03 03:59:38;;;;;;;0.17;0.17;;;;;;;;;;5086181;28;20020;-78
2024/02/03 04:02:04;;;;;;;0.10;0.10;;;;;;;;;;5085740;28;20032;-78
2024/02/03 04:04:30;;;;;;;0.40;0.20;;;;;;;;;;5086712;28;20025;-77
2024/02/03 04:06:56;;;;;;;1.52;0.20;;;;;;;;;;5081727;28;20032;-79
2024/02/03 04:09:22;;;;;;;0.17;0.17;;;;;;;;;;5092021;28;20032;-77
2024/02/03 04:11:48;;;;;;;0.40;0.10;;;;;;;;;;5087319;28;20029;-77
2024/02/03 04:14:15;;;;;;;0.17;0.05;;;;;;;;;;5083191;28;20039;-77
2024/02/03 04:16:41;;;;;;;0.20;0.20;;;;;;;;;;5080363;28;20032;-78
2024/02/03 04:19:07;;;;;;;0.10;0.10;;;;;;;;;;5074705;28;20025;-77
2024/02/03 04:21:33;;;;;;;0.10;0.10;;;;;;;;;;5077269;28;20031;-78
2024/02/03 04:24:00;;;;;;;0.43;0.22;;;;;;;;;;5083286;28;20123;-79
2024/02/03 04:26:26;;;;;;;0.10;0.10;;;;;;;;;;5082490;28;20024;-77
2024/02/03 04:28:53;;;;;;;0.20;0.20;;;;;;;;;;5073045;28;20369;-78
2024/02/03 04:31:19;;;;;;;0.38;0.20;;;;;;;;;;5082256;28;20017;-78
2024/02/03 04:33:45;;;;;;;0.30;0.20;;;;;;;;;;5086494;28;20051;-78
2024/02/03 04:36:13;;;;;;;0.20;0.20;;;;;;;;;;5085568;28;20128;-78
2024/02/03 04:38:39;;;;;;;0.20;0.20;;;;;;;;;;5091485;28;20032;-77
2024/02/03 04:41:05;;;;;;;0.13;0.13;;;;;;;;;;5079130;28;20077;-78
2024/02/03 04:43:31;;;;;;;0.10;0.10;;;;;;;;;;5086294;28;20021;-77
2024/02/03 04:45:57;;;;;;;0.10;0.10;;;;;;;;;;5077684;28;20044;-77
2024/02/03 04:48:23;;;;;;;0.30;0.22;;;;;;;;;;5072179;28;20479;-78
2024/02/03 04:50:49;;;;;;;0.30;0.10;;;;;;;;;;5085740;28;20032;-78
2024/02/03 04:53:16;;;;;;;0.20;0.10;;;;;;;;;;5085726;28;20024;-78
2024/02/03 04:55:42;;;;;;;0.13;0.13;;;;;;;;;;5074875;28;20040;-78
2024/02/03 04:58:08;;;;;;;0.30;0.20;;;;;;;;;;5079402;28;20024;-77
2024/02/03 05:00:34;;;;;;;0.80;0.20;;;;;;;;;;5076788;28;20523;-76
2024/02/03 05:03:00;;;;;;;0.20;0.20;;;;;;;;;;5074836;28;20082;-78
2024/02/03 05:05:27;;;;;;;0.30;0.20;;;;;;;;;;5077944;28;20061;-81
2024/02/03 05:07:53;;;;;;;0.10;0.10;;;;;;;;;;5091219;28;20027;-79
2024/02/03 05:10:19;;;;;;;0.43;0.20;;;;;;;;;;5097143;27;20025;-79
2024/02/03 05:12:46;;;;;;;1.25;0.30;;;;;;;;;;5085973;28;20113;-80
2024/02/03 05:15:12;;;;;;;0.10;0.10;;;;;;;;;;5072348;28;20076;-79
2024/02/03 05:17:38;;;;;;;0.32;0.20;;;;;;;;;;5079464;28;20033;-79
2024/02/03 05:20:05;;;;;;;0.60;0.30;;;;;;;;;;5081343;28;20480;-79
2024/02/03 05:22:31;;;;;;;0.10;0.10;;;;;;;;;;5084800;28;20022;-80
2024/02/03 05:24:57;;;;;;;0.30;0.30;;;;;;;;;;5083753;28;20025;-78
2024/02/03 05:27:24;;;;;;;0.30;0.30;;;;;;;;;;5097182;28;20025;-80
2024/02/03 05:29:50;;;;;;;0.55;0.22;;;;;;;;;;5086541;28;20115;-81
2024/02/03 05:32:16;;;;;;;0.30;0.25;;;;;;;;;;5079799;28;20387;-79
2024/02/03 05:34:42;;;;;;;0.10;0.10;;;;;;;;;;5070410;28;20074;-80
2024/02/03 05:37:09;;;;;;;0.35;0.10;;;;;;;;;;5077133;28;20040;-79
2024/02/03 05:39:36;;;;;;;0.20;0.10;;;;;;;;;;5087159;28;20025;-80
2024/02/03 05:42:02;;;;;;;0.20;0.20;;;;;;;;;;5082414;28;20024;-79
2024/02/03 05:44:28;;;;;;;0.30;0.22;;;;;;;;;;5083628;28;20021;-79
2024/02/03 05:46:54;;;;;;;0.10;0.10;;;;;;;;;;5078754;28;20020;-79
2024/02/03 05:49:20;;;;;;;0.17;0.10;;;;;;;;;;5078327;28;20024;-78
2024/02/03 05:51:46;;;;;;;0.32;0.20;;;;;;;;;;5078936;28;20033;-80
2024/02/03 05:54:12;;;;;;;0.40;0.17;;;;;;;;;;5085775;28;20024;-80
2024/02/03 05:56:38;;;;;;;0.08;0.08;;;;;;;;;;5071202;28;20033;-78
2024/02/03 05:59:04;;;;;;;0.15;0.15;;;;;;;;;;5073243;28;20379;-78
2024/02/03 06:01:30;;;;;;;0.10;0.10;;;;;;;;;;5073140;28;20124;-79
2024/02/03 06:03:57;;;;;;;0.20;0.20;;;;;;;;;;5074683;28;20172;-78
2024/02/03 06:06:23;;;;;;;0.28;0.28;;;;;;;;;;5067829;28;20033;-79
2024/02/03 06:08:49;;;;;;;0.20;0.20;;;;;;;;;;5086318;28;20016;-79
2024/02/03 06:11:16;;;;;;;0.10;0.10;;;;;;;;;;5065341;28;20025;-81
2024/02/03 06:13:42;;;;;;;0.77;0.43;;;;;;;;;;5087150;28;20025;-79
2024/02/03 06:16:08;;;;;;;0.30;0.20;;;;;;;;;;5090785;28;20031;-80
2024/02/03 06:18:34;;;;;;;0.20;0.10;;;;;;;;;;5086607;28;20046;-80
2024/02/03 06:21:00;;;;;;;0.20;0.20;;;;;;;;;;5079038;28;20013;-78
2024/02/03 06:23:26;;;;;;;0.20;0.10;;;;;;;;;;5089568;28;20394;-82
2024/02/03 06:25:52;;;;;;;0.35;0.32;;;;;;;;;;5077880;28;20024;-81
2024/02/03 06:28:18;;;;;;;0.25;0.20;;;;;;;;;;5075917;28;20027;-79
2024/02/03 06:30:44;;;;;;;1.73;0.20;;;;;;;;;;5077617;28;20035;-79
2024/02/03 06:33:10;;;;;;;0.28;0.25;;;;;;;;;;5073562;28;20109;-79
2024/02/03 06:35:36;;;;;;;0.40;0.40;;;;;;;;;;5085981;28;20107;-80
2024/02/03 06:38:03;;;;;;;3.88;0.40;;;;;;;;;;5086056;28;20021;-80
2024/02/03 06:40:29;;;;;;;1.90;0.17;;;;;;;;;;5082480;28;20021;-80
2024/02/03 06:42:55;;;;;;;0.40;0.20;;;;;;;;;;5085551;28;20020;-79
2024/02/03 06:45:21;;;;;;;0.60;0.32;;;;;;;;;;5082994;28;20134;-79
2024/02/03 06:47:47;;;;;;;0.75;0.35;;;;;;;;;;5081178;28;20024;-80
2024/02/03 06:50:13;;;;;;;0.85;0.28;;;;;;;;;;5073234;28;20078;-79
2024/02/03 06:52:39;;;;;;;0.22;0.20;;;;;;;;;;5081547;28;20025;-80
2024/02/03 06:55:06;;;;;;;0.98;0.30;;;;;;;;;;5074693;28;20025;-79
2024/02/03 06:57:32;;;;;;;2.30;0.40;;;;;;;;;;5083497;28;20028;-79
2024/02/03 06:59:58;;;;;;;0.40;0.30;;;;;;;;;;5082088;28;20026;-79
2024/02/03 07:02:24;;;;;;;0.30;0.20;;;;;;;;;;5085910;28;20078;-80
2024/02/03 07:04:50;;;;;;;1.10;0.60;;;;;;;;;;5077568;28;20025;-79
2024/02/03 07:07:16;;;;;;;0.55;0.30;;;;;;;;;;5075458;28;20384;-80
2024/02/03 07:09:42;;;;;;;1.15;0.50;;;;;;;;;;5084310;28;20049;-80
2024/02/03 07:12:09;;;;;;;0.50;0.30;;;;;;;;;;5075704;28;20036;-79
2024/02/03 07:14:35;;;;;;;0.60;0.50;;;;;;;;;;5094963;28;20015;-79
2024/02/03 07:17:01;;;;;;;2.40;1.30;;;;;;;;;;5088172;27;20502;-79
2024/02/03 07:19:28;;;;;;;4.63;2.88;;;;;;;;;;5080333;28;20033;-80
2024/02/03 07:21:54;;;;;;;14.15;10.65;;;;;;;;;;5084036;28;20043;-81
2024/02/03 07:24:20;;;;;;;19.20;13.95;;;;;;;;;;5086322;28;20040;-78
2024/02/03 07:26:47;;;;;;;17.48;12.65;;;;;;;;;;5091708;28;20027;-81
2024/02/03 07:29:14;;;;;;;14.68;10.77;;;;;;;;;;5080441;28;20016;-80
2024/02/03 07:31:41;;;;;;;10.50;7.88;;;;;;;;;;5083239;28;20017;-79
2024/02/03 07:34:07;;;;;;;5.00;4.50;;;;;;;;;;5074571;28;20024;-79
2024/02/03 07:36:33;;;;;;;5.32;4.35;;;;;;;;;;5083965;28;20037;-80
2024/02/03 07:39:01;;;;;;;4.60;3.55;;;;;;;;;;5079363;28;20078;-80
2024/02/03 07:41:27;;;;;;;3.92;3.22;;;;;;;;;;5079207;28;20020;-80
2024/02/03 07:43:53;;;;;;;2.78;2.28;;;;;;;;;;5082805;28;20422;-79
2024/02/03 07:46:19;;;;;;;2.40;1.85;;;;;;;;;;5080456;28;20032;-79
2024/02/03 07:48:46;;;;;;;1.85;1.45;;;;;;;;;;5097261;28;20028;-81
2024/02/03 07:51:12;;;;;;;1.08;1.08;;;;;;;;;;5075571;28;20020;-78
2024/02/03 07:53:38;;;;;;;1.10;1.00;;;;;;;;;;5094669;28;20040;-77
2024/02/03 07:56:05;;;;;;;6.50;4.43;;;;;;;;;;5088461;28;20032;-79
2024/02/03 07:58:31;;;;;;;5.25;3.90;;;;;;;;;;5081978;28;20017;-80
2024/02/03 08:00:57;;;;;;;5.15;3.70;;;;;;;;;;5087103;28;20024;-77
2024/02/03 08:03:23;;;;;;;5.90;3.97;;;;;;;;;;5089852;28;20047;-78
2024/02/03 08:05:50;;;;;;;7.72;5.05;;;;;;;;;;5084131;28;20075;-80
2024/02/03 08:08:16;;;;;;;7.13;5.38;;;;;;;;;;5081689;28;20032;-80
2024/02/03 08:10:42;;;;;;;8.85;6.00;;;;;;;;;;5082431;28;20032;-79
2024/02/03 08:13:08;;;;;;;6.00;4.35;;;;;;;;;;5090172;28;20024;-80
2024/02/03 08:15:34;;;;;;;5.88;4.38;;;;;;;;;;5093965;28;20025;-80
2024/02/03 08:18:00;;;;;;;4.47;3.85;;;;;;;;;;5072328;28;20093;-79
2024/02/03 08:20:26;;;;;;;5.85;3.03;;;;;;;;;;5087398;28;20025;-80
2024/02/03 08:22:53;;;;;;;1.90;1.70;;;;;;;;;;5076957;28;20035;-79
2024/02/03 08:25:19;;;;;;;0.88;0.88;;;;;;;;;;5074875;28;20031;-80
2024/02/03 08:27:45;;;;;;;0.90;0.65;;;;;;;;;;5085635;28;20012;-79
2024/02/03 08:30:12;;;;;;;0.50;0.50;;;;;;;;;;5084485;28;20054;-80
2024/02/03 08:32:38;;;;;;;0.50;0.50;;;;;;;;;;5082371;28;20032;-80
2024/02/03 08:35:04;;;;;;;2.53;2.35;;;;;;;;;;5085739;28;20029;-79
2024/02/03 08:37:30;;;;;;;5.03;4.53;;;;;;;;;;5082223;28;20021;-80
2024/02/03 08:39:56;;;;;;;4.50;4.10;;;;;;;;;;5080969;28;20025;-80
2024/02/03 08:42:22;;;;;;;3.83;3.53;;;;;;;;;;5090070;28;20020;-80
2024/02/03 08:44:49;;;;;;;2.50;1.85;;;;;;;;;;5086824;28;20116;-80
2024/02/03 08:47:15;;;;;;;1.83;1.73;;;;;;;;;;5085305;28;20048;-79
2024/02/03 08:49:51;;;;;;;1.90;1.63;;;;;;;;;;5089530;28;20028;-79
2024/02/03 08:52:17;;;;;;;1.67;1.58;;;;;;;;;;5093554;28;20071;-78
2024/02/03 08:54:44;;;;;;;1.65;1.17;;;;;;;;;;5089539;28;20190;-80
2024/02/03 08:57:10;;;;;;;0.80;0.80;;;;;;;;;;5088837;28;20025;-78
2024/02/03 08:59:36;;;;;;;0.95;0.63;;;;;;;;;;5098647;28;20387;-79
2024/02/03 09:02:03;;;;;;;0.75;0.70;;;;;;;;;;5086351;28;20029;-79
2024/02/03 09:04:29;;;;;;;1.15;0.77;;;;;;;;;;5098072;28;20017;-79
2024/02/03 09:06:55;;;;;;;0.40;0.40;;;;;;;;;;5092171;28;20403;-79
2024/02/03 09:09:22;;;;;;;2.38;0.50;;;;;;;;;;5090169;28;20038;-78
2024/02/03 09:11:48;;;;;;;0.43;0.40;;;;;;;;;;5092226;28;20046;-79
2024/02/03 09:14:14;;;;;;;0.70;0.50;;;;;;;;;;5088680;28;20081;-80
2024/02/03 09:16:41;;;;;;;1.23;0.60;;;;;;;;;;5080049;28;20039;-80
2024/02/03 09:19:07;;;;;;;0.40;0.40;;;;;;;;;;5092739;28;20001;-79
2024/02/03 09:21:33;;;;;;;0.85;0.47;;;;;;;;;;5075030;28;20058;-78
2024/02/03 09:24:00;;;;;;;1.15;0.75;;;;;;;;;;5078633;28;20074;-80
2024/02/03 09:26:26;;;;;;;1.15;0.70;;;;;;;;;;5082124;28;20016;-78
2024/02/03 09:28:55;;;;;;;1.58;1.25;;;;;;;;;;5088706;28;20294;-80
2024/02/03 09:31:21;;;;;;;0.93;0.88;;;;;;;;;;5083929;28;20032;-79
2024/02/03 09:33:48;;;;;;;2.28;1.98;;;;;;;;;;5063894;28;20016;-78
2024/02/03 09:36:14;;;;;;;5.60;3.75;;;;;;;;;;5070681;28;20028;-79
2024/02/03 09:38:41;;;;;;;9.93;6.45;;;;;;;;;;5080556;28;20013;-79
2024/02/03 09:41:08;;;;;;;8.32;5.10;;;;;;;;;;5090241;28;20363;-80
2024/02/03 09:43:34;;;;;;;6.75;3.60;;;;;;;;;;5076463;28;20024;-78
2024/02/03 09:46:00;;;;;;;4.88;3.25;;;;;;;;;;5086805;28;20454;-80
2024/02/03 09:48:27;;;;;;;5.47;3.50;;;;;;;;;;5079654;28;20104;-80
2024/02/03 09:50:53;;;;;;;2.47;2.25;;;;;;;;;;5075925;28;20073;-79
2024/02/03 09:53:19;;;;;;;2.70;2.45;;;;;;;;;;5072821;28;20100;-79
2024/02/03 09:55:46;;;;;;;1.83;1.73;;;;;;;;;;5087687;28;20510;-79
2024/02/03 09:58:12;;;;;;;2.13;1.40;;;;;;;;;;5076546;28;20099;-80
2024/02/03 10:00:38;;;;;;;1.35;1.25;;;;;;;;;;5081645;28;20097;-80
2024/02/03 10:03:04;;;;;;;0.75;0.75;;;;;;;;;;5084091;28;20026;-79
2024/02/03 10:05:31;;;;;;;0.75;0.55;;;;;;;;;;5083814;28;20423;-78
2024/02/03 10:08:01;;;;;;;0.70;0.70;;;;;;;;;;5080714;28;20088;-79
2024/02/03 10:10:27;;;;;;;1.05;0.80;;;;;;;;;;5078158;28;20020;-81
2024/02/03 10:13:03;;;;;;;0.80;0.80;;;;;;;;;;5087222;28;20105;-80
2024/02/03 10:15:29;;;;;;;1.55;1.35;;;;;;;;;;5078490;28;20048;-78
2024/02/03 10:17:58;;;;;;;2.13;1.45;;;;;;;;;;5078710;28;20024;-77
2024/02/03 10:20:25;;;;;;;7.45;3.90;;;;;;;;;;5076903;28;20035;-79
2024/02/03 10:22:51;;;;;;;5.00;2.72;;;;;;;;;;5066564;28;20028;-80
2024/02/03 10:25:18;;;;;;;10.00;2.28;;;;;;;;;;5086047;28;20099;-79
2024/02/03 10:27:44;;;;;;;4.95;2.50;;;;;;;;;;5084800;28;20029;-78
2024/02/03 10:30:10;;;;;;;2.60;1.40;;;;;;;;;;5077103;28;20032;-79
2024/02/03 10:32:36;;;;;;;2.30;1.40;;;;;;;;;;5085394;28;20047;-79
2024/02/03 10:35:03;;;;;;;2.70;1.45;;;;;;;;;;5077189;28;20042;-78
2024/02/03 10:37:29;;;;;;;4.07;2.53;;;;;;;;;;5076331;28;20048;-78
2024/02/03 10:39:55;;;;;;;5.00;2.72;;;;;;;;;;5085956;28;20025;-78
2024/02/03 10:42:25;;;;;;;4.68;1.70;;;;;;;;;;5085680;28;20107;-79
2024/02/03 10:44:53;;;;;;;5.65;1.85;;;;;;;;;;5091563;28;20039;-79
2024/02/03 10:47:23;;;;;;;11.00;5.43;;;;;;;;;;5072028;28;20025;-79
2024/02/03 10:49:50;;;;;;;11.35;5.70;;;;;;;;;;5074702;28;20310;-80
2024/02/03 10:52:18;;;;;;;3.78;2.20;;;;;;;;;;5082084;28;20099;-79
2024/02/03 10:54:46;;;;;;;2.13;1.65;;;;;;;;;;5087555;28;20021;-79
2024/02/03 10:57:12;;;;;;;1.48;1.38;;;;;;;;;;5071235;28;20028;-79
2024/02/03 10:59:38;;;;;;;1.10;1.10;;;;;;;;;;5080948;28;20084;-77
2024/02/03 11:02:15;;;;;;;1.42;1.02;;;;;;;;;;5091504;28;20025;-78
2024/02/03 11:04:41;;;;;;;1.05;0.82;;;;;;;;;;5071825;28;20468;-79
2024/02/03 11:07:08;;;;;;;1.25;0.95;;;;;;;;;;5079344;28;20041;-79
2024/02/03 11:09:34;;;;;;;1.40;1.30;;;;;;;;;;5077211;28;20032;-78
2024/02/03 11:12:00;;;;;;;1.30;0.85;;;;;;;;;;5077515;28;20032;-79
2024/02/03 11:14:30;;;;;;;1.83;0.90;;;;;;;;;;5075942;28;20035;-79
2024/02/03 11:17:04;;;;;;;1.05;0.80;;;;;;;;;;5086007;28;20081;-80
2024/02/03 11:19:34;;;;;;;0.70;0.70;;;;;;;;;;5079968;28;20070;-79
2024/02/03 11:22:01;;;;;;;0.90;0.82;;;;;;;;;;5087165;28;20029;-79
2024/02/03 11:24:28;;;;;;;1.02;0.73;;;;;;;;;;5083440;28;20020;-80
2024/02/03 11:27:07;;;;;;;1.13;0.75;;;;;;;;;;5098096;28;20126;-79
2024/02/03 11:29:34;;;;;;;1.02;0.80;;;;;;;;;;5082114;28;20032;-79
2024/02/03 11:32:03;;;;;;;2.20;0.63;;;;;;;;;;5077474;28;20048;-79
2024/02/03 11:34:34;;;;;;;0.50;0.50;;;;;;;;;;5068799;28;20055;-80
2024/02/03 11:37:00;;;;;;;0.60;0.60;;;;;;;;;;5074066;28;20561;-80
2024/02/03 11:39:37;;;;;;;0.60;0.60;;;;;;;;;;5076819;28;20567;-80
2024/02/03 11:42:04;;;;;;;1.33;1.00;;;;;;;;;;5068073;28;20024;-79
2024/02/03 11:44:48;;;;;;;1.20;0.80;;;;;;;;;;5074342;28;20483;-78
2024/02/03 11:47:19;;;;;;;1.60;1.08;;;;;;;;;;5080367;28;20110;-80
2024/02/03 11:49:46;;;;;;;0.98;0.70;;;;;;;;;;5073858;28;20074;-78
2024/02/03 11:52:12;;;;;;;1.35;0.90;;;;;;;;;;5078240;28;20479;-79
2024/02/03 11:54:38;;;;;;;0.90;0.60;;;;;;;;;;5076405;28;20032;-79
2024/02/03 11:57:05;;;;;;;0.75;0.75;;;;;;;;;;5075634;28;20106;-78
2024/02/03 11:59:31;;;;;;;0.77;0.52;;;;;;;;;;5071620;28;20024;-79
2024/02/03 12:01:58;;;;;;;0.70;0.70;;;;;;;;;;5078898;28;20035;-79
2024/02/03 12:04:24;;;;;;;1.08;0.65;;;;;;;;;;5078045;28;20033;-78
2024/02/03 12:06:50;;;;;;;0.70;0.70;;;;;;;;;;5077542;28;20025;-78
2024/02/03 12:09:18;;;;;;;0.47;0.47;;;;;;;;;;5077132;28;20036;-79
2024/02/03 12:11:45;;;;;;;0.55;0.55;;;;;;;;;;5080361;28;20028;-80
2024/02/03 12:14:11;;;;;;;0.98;0.68;;;;;;;;;;5079361;28;20341;-79
2024/02/03 12:16:37;;;;;;;0.60;0.60;;;;;;;;;;5071497;28;20024;-79
2024/02/03 12:19:03;;;;;;;1.23;0.73;;;;;;;;;;5080677;28;20028;-78
2024/02/03 12:21:30;;;;;;;0.60;0.60;;;;;;;;;;5076768;28;20040;-79
2024/02/03 12:23:56;;;;;;;1.48;0.93;;;;;;;;;;5076216;28;20085;-79
2024/02/03 12:26:22;;;;;;;2.60;0.90;;;;;;;;;;5074313;28;20112;-80
2024/02/03 12:28:48;;;;;;;0.95;0.88;;;;;;;;;;5071761;28;20040;-79
2024/02/03 12:31:14;;;;;;;1.10;0.82;;;;;;;;;;5075507;28;20552;-78
2024/02/03 12:33:40;;;;;;;3.55;2.97;;;;;;;;;;5076707;28;20029;-80
2024/02/03 12:36:08;;;;;;;3.92;3.35;;;;;;;;;;5074712;28;20066;-78
2024/02/03 12:38:35;;;;;;;6.38;3.28;;;;;;;;;;5079075;28;20021;-80
2024/02/03 12:41:01;;;;;;;4.75;3.00;;;;;;;;;;5079861;28;20021;-78
2024/02/03 12:43:28;;;;;;;3.63;2.30;;;;;;;;;;5089701;28;20046;-78
2024/02/03 12:45:54;;;;;;;3.38;2.55;;;;;;;;;;5093666;28;20040;-79
2024/02/03 12:48:20;;;;;;;2.13;1.95;;;;;;;;;;5077939;28;20020;-79
2024/02/03 12:50:46;;;;;;;0.90;0.90;;;;;;;;;;5078713;28;20025;-78
2024/02/03 12:53:12;;;;;;;2.28;0.82;;;;;;;;;;5077108;28;20078;-78
2024/02/03 12:55:38;;;;;;;1.55;0.93;;;;;;;;;;5080426;28;20024;-79
2024/02/03 12:58:05;;;;;;;0.80;0.80;;;;;;;;;;5078633;28;20025;-79
2024/02/03 13:00:31;;;;;;;3.30;0.70;;;;;;;;;;5077753;28;20021;-78
2024/02/03 13:02:57;;;;;;;1.00;0.50;;;;;;;;;;5072486;28;20025;-78
2024/02/03 13:05:23;;;;;;;1.67;0.77;;;;;;;;;;5077834;28;20032;-80
2024/02/03 13:07:50;;;;;;;1.13;0.50;;;;;;;;;;5072399;28;20045;-78
2024/02/03 13:10:16;;;;;;;1.45;0.57;;;;;;;;;;5070879;28;20031;-78
2024/02/03 13:12:42;;;;;;;0.50;0.50;;;;;;;;;;5090268;28;20031;-79
2024/02/03 13:15:09;;;;;;;1.15;0.65;;;;;;;;;;5080461;28;20020;-79
2024/02/03 13:17:35;;;;;;;0.75;0.68;;;;;;;;;;5072651;28;20032;-79
2024/02/03 13:20:01;;;;;;;0.43;0.43;;;;;;;;;;5073709;28;20039;-78
2024/02/03 13:22:27;;;;;;;0.63;0.63;;;;;;;;;;5081120;28;20065;-79
2024/02/03 13:24:53;;;;;;;0.50;0.50;;;;;;;;;;5094983;28;20023;-78
2024/02/03 13:27:19;;;;;;;2.42;0.77;;;;;;;;;;5084187;28;20120;-79
2024/02/03 13:29:45;;;;;;;0.80;0.57;;;;;;;;;;5078583;28;20085;-78
2024/02/03 13:32:14;;;;;;;0.50;0.50;;;;;;;;;;5078528;28;20099;-78
2024/02/03 13:34:40;;;;;;;0.40;0.40;;;;;;;;;;5081181;28;20032;-79
2024/02/03 13:37:06;;;;;;;0.50;0.43;;;;;;;;;;5092512;28;20044;-79
2024/02/03 13:39:32;;;;;;;0.57;0.57;;;;;;;;;;5078312;28;20058;-79
2024/02/03 13:41:58;;;;;;;0.73;0.73;;;;;;;;;;5090205;28;20035;-79
2024/02/03 13:44:25;;;;;;;0.57;0.57;;;;;;;;;;5081448;28;20043;-79
2024/02/03 13:46:51;;;;;;;0.40;0.40;;;;;;;;;;5074682;28;20020;-78
2024/02/03 13:49:17;;;;;;;0.40;0.40;;;;;;;;;;5081613;28;20361;-79
2024/02/03 13:51:44;;;;;;;0.68;0.60;;;;;;;;;;5076576;28;20020;-79
2024/02/03 13:54:11;;;;;;;0.52;0.52;;;;;;;;;;5080470;28;20112;-78
2024/02/03 13:56:37;;;;;;;0.47;0.40;;;;;;;;;;5078794;28;20048;-78
2024/02/03 13:59:03;;;;;;;0.60;0.40;;;;;;;;;;5085963;28;20429;-79
2024/02/03 14:01:29;;;;;;;1.17;0.70;;;;;;;;;;5084527;28;20723;-80
2024/02/03 14:03:55;;;;;;;0.52;0.50;;;;;;;;;;5077793;28;20035;-79
2024/02/03 14:06:22;;;;;;;1.45;0.60;;;;;;;;;;5078203;28;20105;-83
2024/02/03 14:08:48;;;;;;;0.40;0.40;;;;;;;;;;5081972;28;20361;-78
2024/02/03 14:11:14;;;;;;;1.17;0.60;;;;;;;;;;5071017;28;20028;-80
2024/02/03 14:13:44;;;;;;;0.88;0.60;;;;;;;;;;5079464;28;20104;-79
2024/02/03 14:16:14;;;;;;;0.60;0.60;;;;;;;;;;5077464;28;20025;-80
2024/02/03 14:18:41;;;;;;;0.93;0.55;;;;;;;;;;5072666;28;20099;-79
2024/02/03 14:21:08;;;;;;;0.60;0.60;;;;;;;;;;5086715;28;20023;-78
2024/02/03 14:23:34;;;;;;;1.02;0.73;;;;;;;;;;5087484;28;20069;-77
2024/02/03 14:26:06;;;;;;;1.63;0.88;;;;;;;;;;5087857;28;20022;-80
2024/02/03 14:28:33;;;;;;;3.30;3.03;;;;;;;;;;5072771;28;20048;-79
2024/02/03 14:30:59;;;;;;;5.50;4.05;;;;;;;;;;5081863;28;20024;-79
2024/02/03 14:33:25;;;;;;;2.13;1.92;;;;;;;;;;5085231;28;20050;-79
2024/02/03 14:35:55;;;;;;;1.92;1.65;;;;;;;;;;5085192;28;20028;-78
2024/02/03 14:38:24;;;;;;;4.22;3.70;;;;;;;;;;5087700;28;20021;-78